Time;durP1;ratioP1;P1;durP2;ratioP2;P2;SDS_P1;SDS_P2;PMS_P1;PMS_P2;Temp;Humidity;BMP_temperature;BMP_pressure;BME280_temperature;BME280_humidity;BME280_pressure;Samples;Min_cycle;Max_cycle;Signal;HPM_P1;HPM_P2
2021/01/23 00:04:23;;;;;;;24.88;14.60;;;2.20;99.90;;;;;;12505472;28;20053;-41
2021/01/23 00:10:24;;;;;;;29.27;15.18;;;2.30;99.90;;;;;;12498543;28;20465;-41
2021/01/23 00:16:26;;;;;;;24.45;15.02;;;2.30;99.90;;;;;;12512015;28;20151;-42
2021/01/23 00:22:27;;;;;;;25.08;14.27;;;2.30;99.90;;;;;;12486458;28;20859;-42
2021/01/23 00:28:28;;;;;;;22.52;15.05;;;2.20;99.90;;;;;;12509325;28;20132;-42
2021/01/23 00:34:30;;;;;;;22.25;12.82;;;2.20;99.90;;;;;;12504947;28;20105;-42
2021/01/23 00:40:31;;;;;;;17.35;11.95;;;2.20;99.90;;;;;;12483259;28;20102;-42
2021/01/23 00:46:32;;;;;;;25.58;15.38;;;1.90;99.90;;;;;;12496473;28;20048;-42
2021/01/23 00:52:35;;;;;;;24.95;16.35;;;1.70;99.90;;;;;;12490493;28;20045;-42
2021/01/23 00:58:37;;;;;;;24.77;15.10;;;1.70;99.90;;;;;;12494029;28;20049;-42
2021/01/23 01:04:39;;;;;;;25.05;15.70;;;1.60;99.90;;;;;;12499382;28;20140;-41
2021/01/23 01:10:45;;;;;;;24.48;15.18;;;1.60;99.90;;;;;;12493818;28;20082;-42
2021/01/23 01:16:46;;;;;;;27.23;16.48;;;1.60;99.90;;;;;;12491133;28;20053;-42
2021/01/23 01:22:48;;;;;;;27.23;16.38;;;1.60;99.90;;;;;;12506874;28;20083;-41
2021/01/23 01:28:49;;;;;;;30.70;17.80;;;1.50;99.90;;;;;;12503524;28;20139;-41
2021/01/23 01:34:50;;;;;;;31.95;17.65;;;1.60;99.90;;;;;;12483742;28;20053;-41
2021/01/23 01:40:52;;;;;;;32.22;17.77;;;1.70;99.90;;;;;;12492251;28;20510;-41
2021/01/23 01:46:54;;;;;;;33.97;18.02;;;1.70;99.90;;;;;;12487585;28;20090;-42
2021/01/23 01:52:55;;;;;;;31.80;19.02;;;1.80;99.90;;;;;;12473659;28;20511;-42
2021/01/23 01:58:57;;;;;;;32.28;19.35;;;2.00;99.90;;;;;;12490010;28;20093;-42
2021/01/23 02:05:07;;;;;;;28.08;18.20;;;2.10;99.90;;;;;;12496384;28;20799;-42
2021/01/23 02:11:11;;;;;;;33.83;18.25;;;2.20;99.90;;;;;;12497115;28;20048;-42
2021/01/23 02:17:15;;;;;;;34.67;20.00;;;2.10;99.90;;;;;;12471216;28;20095;-42
2021/01/23 02:23:33;;;;;;;35.83;20.70;;;2.00;99.90;;;;;;12450561;28;20041;-41
2021/01/23 02:30:04;;;;;;;30.95;19.67;;;1.90;99.90;;;;;;12472481;28;20303;-41
2021/01/23 02:36:08;;;;;;;31.13;19.50;;;1.80;99.90;;;;;;12423984;28;20076;-42
2021/01/23 02:42:09;;;;;;;37.13;21.20;;;2.00;99.90;;;;;;12429915;28;20466;-41
2021/01/23 02:48:10;;;;;;;31.85;20.48;;;2.00;99.90;;;;;;12417823;28;20055;-42
2021/01/23 02:54:34;;;;;;;35.72;20.98;;;1.90;99.90;;;;;;12456384;28;20102;-42
2021/01/23 03:00:37;;;;;;;34.95;21.02;;;1.90;99.90;;;;;;12469881;28;20902;-42
2021/01/23 03:06:39;;;;;;;36.30;20.88;;;2.00;99.90;;;;;;12482761;28;20044;-42
2021/01/23 03:12:40;;;;;;;38.63;20.05;;;1.90;99.90;;;;;;12490683;28;20045;-42
2021/01/23 03:18:41;;;;;;;32.97;19.73;;;1.90;99.90;;;;;;12464013;28;20527;-42
2021/01/23 03:24:43;;;;;;;35.45;20.00;;;1.90;99.90;;;;;;12498716;28;20056;-42
2021/01/23 03:30:44;;;;;;;38.83;20.35;;;1.90;99.90;;;;;;12509821;28;20131;-42
2021/01/23 03:36:46;;;;;;;36.40;20.73;;;1.80;99.90;;;;;;12501145;28;20524;-42
2021/01/23 03:42:47;;;;;;;34.45;21.65;;;1.80;99.90;;;;;;12499449;28;20036;-42
2021/01/23 03:48:48;;;;;;;35.60;21.23;;;1.80;99.90;;;;;;12472763;28;20095;-41
2021/01/23 03:54:50;;;;;;;36.15;21.02;;;1.90;99.90;;;;;;12456315;28;20288;-42
2021/01/23 04:00:52;;;;;;;31.05;19.08;;;1.90;99.90;;;;;;12456163;28;20071;-42
2021/01/23 04:06:54;;;;;;;34.33;20.70;;;2.00;99.90;;;;;;12474444;28;20056;-42
2021/01/23 04:12:56;;;;;;;37.05;20.15;;;1.90;99.90;;;;;;12447151;28;20180;-42
2021/01/23 04:18:57;;;;;;;33.08;18.80;;;1.80;99.90;;;;;;12429359;28;20080;-42
2021/01/23 04:24:58;;;;;;;30.20;18.30;;;1.80;99.90;;;;;;12436731;28;20132;-42
2021/01/23 04:31:00;;;;;;;32.35;17.95;;;1.90;99.90;;;;;;12443930;28;20041;-41
2021/01/23 04:37:01;;;;;;;30.30;19.02;;;1.90;99.90;;;;;;12437966;28;20504;-42
2021/01/23 04:43:03;;;;;;;28.88;16.75;;;1.90;99.90;;;;;;12432266;28;20045;-42
2021/01/23 04:49:05;;;;;;;29.90;17.08;;;1.90;99.90;;;;;;12449226;28;20053;-42
2021/01/23 04:55:08;;;;;;;32.15;16.13;;;2.00;99.90;;;;;;12442934;28;20144;-42
2021/01/23 05:01:15;;;;;;;28.95;16.02;;;2.00;99.90;;;;;;12458713;28;20053;-42
2021/01/23 05:07:34;;;;;;;29.70;15.60;;;2.10;99.90;;;;;;12501432;28;20045;-42
2021/01/23 05:13:35;;;;;;;25.30;14.93;;;2.10;99.90;;;;;;12501562;28;20086;-42
2021/01/23 05:19:41;;;;;;;25.55;16.08;;;2.10;99.90;;;;;;12486625;28;21116;-42
2021/01/23 05:25:46;;;;;;;30.85;15.77;;;1.90;99.90;;;;;;12495289;28;20465;-41
2021/01/23 05:32:14;;;;;;;34.38;16.27;;;1.80;99.90;;;;;;12505010;28;20109;-41
2021/01/23 05:38:26;;;;;;;27.05;14.55;;;1.80;99.90;;;;;;12500153;28;20056;-42
2021/01/23 05:44:27;;;;;;;31.15;15.40;;;1.90;99.90;;;;;;12495302;28;20350;-42
2021/01/23 05:50:28;;;;;;;26.15;14.98;;;1.90;99.90;;;;;;12489906;28;20048;-41
2021/01/23 05:56:30;;;;;;;26.45;14.32;;;1.80;99.90;;;;;;12492006;28;20094;-41
2021/01/23 06:02:33;;;;;;;29.65;14.60;;;1.80;99.90;;;;;;12488273;28;20085;-42
2021/01/23 06:08:46;;;;;;;24.52;12.90;;;1.80;99.90;;;;;;12484504;28;20052;-41
2021/01/23 06:14:47;;;;;;;27.67;13.88;;;1.80;99.90;;;;;;12488607;28;20110;-41
2021/01/23 06:20:50;;;;;;;24.60;12.95;;;1.90;99.90;;;;;;12488465;28;20093;-42
2021/01/23 06:26:54;;;;;;;24.92;13.32;;;1.90;99.90;;;;;;12489457;28;20069;-41
2021/01/23 06:32:55;;;;;;;26.17;12.60;;;1.90;99.90;;;;;;12494699;28;20071;-41
2021/01/23 06:39:09;;;;;;;22.00;12.00;;;2.00;99.90;;;;;;12485704;28;20041;-41
2021/01/23 06:45:27;;;;;;;30.45;12.82;;;2.10;99.90;;;;;;12486246;28;20053;-41
2021/01/23 06:51:28;;;;;;;25.95;11.95;;;2.00;99.90;;;;;;12491743;28;20036;-42
2021/01/23 06:57:32;;;;;;;23.00;12.35;;;2.00;99.90;;;;;;12484285;28;20045;-42
2021/01/23 07:03:33;;;;;;;24.85;13.15;;;1.90;99.90;;;;;;12483137;28;20140;-41
2021/01/23 07:09:45;;;;;;;31.38;14.88;;;1.80;99.90;;;;;;12499410;28;20057;-42
2021/01/23 07:15:46;;;;;;;32.45;14.32;;;1.80;99.90;;;;;;12497779;28;20078;-42
2021/01/23 07:21:49;;;;;;;33.38;14.10;;;1.70;99.90;;;;;;12499544;28;20144;-41
2021/01/23 07:27:50;;;;;;;26.10;14.15;;;1.70;99.90;;;;;;12494924;28;20045;-42
2021/01/23 07:33:52;;;;;;;28.10;14.00;;;1.70;99.90;;;;;;12493014;28;20435;-42
2021/01/23 07:39:54;;;;;;;30.35;14.10;;;1.70;99.90;;;;;;12488771;28;20123;-42
2021/01/23 07:45:56;;;;;;;26.67;12.77;;;1.70;99.90;;;;;;12493517;28;20451;-41
2021/01/23 07:52:07;;;;;;;30.10;13.52;;;1.60;99.90;;;;;;12500436;28;20072;-41
2021/01/23 07:58:09;;;;;;;25.95;13.02;;;1.70;99.90;;;;;;12510737;28;20048;-41
2021/01/23 08:04:33;;;;;;;23.30;12.25;;;1.70;99.90;;;;;;12491395;28;20044;-41
2021/01/23 08:10:35;;;;;;;21.42;11.50;;;1.70;99.90;;;;;;12508228;28;20056;-42
2021/01/23 08:16:53;;;;;;;23.92;11.18;;;1.70;99.90;;;;;;12498407;28;20862;-41
2021/01/23 08:22:56;;;;;;;20.90;9.95;;;1.80;99.90;;;;;;12498633;28;20052;-41
2021/01/23 08:28:57;;;;;;;17.55;8.82;;;2.00;99.90;;;;;;12494704;28;20060;-41
2021/01/23 08:34:58;;;;;;;16.02;8.05;;;2.30;99.90;;;;;;12480340;28;20114;-42
2021/01/23 08:41:01;;;;;;;15.73;8.13;;;2.40;99.90;;;;;;12489397;28;20045;-42
2021/01/23 08:47:03;;;;;;;18.17;7.97;;;2.60;99.90;;;;;;12495554;28;20096;-42
2021/01/23 08:53:04;;;;;;;18.77;7.93;;;2.70;99.90;;;;;;12502956;28;20139;-42
2021/01/23 08:59:06;;;;;;;14.60;7.30;;;2.90;99.90;;;;;;12506666;28;20522;-42
2021/01/23 09:05:10;;;;;;;10.45;6.13;;;3.00;99.90;;;;;;12485639;28;20131;-42
2021/01/23 09:11:12;;;;;;;50.97;10.40;;;3.10;99.90;;;;;;12502224;28;20094;-41
2021/01/23 09:17:16;;;;;;;14.97;6.70;;;3.20;99.90;;;;;;12498443;28;20049;-41
2021/01/23 09:23:17;;;;;;;34.30;7.13;;;3.20;99.90;;;;;;12506807;28;20049;-41
2021/01/23 09:29:19;;;;;;;36.53;7.53;;;3.30;99.90;;;;;;12484037;28;20114;-42
2021/01/23 09:35:20;;;;;;;16.70;7.05;;;3.40;99.90;;;;;;12490540;28;20432;-41
2021/01/23 09:41:21;;;;;;;15.55;6.55;;;3.50;99.90;;;;;;12483124;28;20662;-42
2021/01/23 09:47:23;;;;;;;15.15;6.60;;;3.60;99.90;;;;;;12464915;28;20116;-42
2021/01/23 09:53:24;;;;;;;27.15;8.63;;;3.60;99.90;;;;;;12473304;28;20040;-42
2021/01/23 09:59:26;;;;;;;37.13;8.18;;;3.60;99.90;;;;;;12502027;28;20052;-42
2021/01/23 10:05:27;;;;;;;16.10;7.88;;;3.50;99.90;;;;;;12492875;28;20541;-41
2021/01/23 10:11:29;;;;;;;15.48;6.55;;;3.50;99.90;;;;;;12502431;28;20457;-42
2021/01/23 10:17:30;;;;;;;17.85;7.30;;;3.60;99.90;;;;;;12490107;28;20041;-42
2021/01/23 10:23:32;;;;;;;12.15;6.30;;;3.60;99.90;;;;;;12484123;28;20045;-42
2021/01/23 10:29:33;;;;;;;18.60;6.47;;;3.60;99.90;;;;;;12497373;28;20140;-42
2021/01/23 10:35:34;;;;;;;12.57;6.63;;;3.50;99.90;;;;;;12504816;28;20048;-42
2021/01/23 10:41:36;;;;;;;9.93;5.63;;;3.60;99.90;;;;;;12497846;28;20144;-42
2021/01/23 10:47:38;;;;;;;13.55;6.15;;;3.60;99.90;;;;;;12498236;28;20526;-42
2021/01/23 10:53:40;;;;;;;13.77;6.07;;;3.70;99.90;;;;;;12503839;28;20118;-42
2021/01/23 10:59:42;;;;;;;13.75;6.20;;;3.70;99.90;;;;;;12513711;28;20045;-42
2021/01/23 11:05:44;;;;;;;10.43;5.78;;;3.90;99.90;;;;;;12506070;28;20046;-42
2021/01/23 11:11:45;;;;;;;12.52;5.43;;;4.00;99.90;;;;;;12508058;28;20507;-42
2021/01/23 11:17:46;;;;;;;9.88;4.97;;;4.10;99.90;;;;;;12505775;28;20199;-41
2021/01/23 11:23:48;;;;;;;9.43;4.47;;;4.50;99.90;;;;;;12490720;28;20056;-41
2021/01/23 11:29:49;;;;;;;8.57;4.18;;;4.60;99.90;;;;;;12506996;28;20053;-42
2021/01/23 11:35:50;;;;;;;8.50;5.07;;;4.60;99.90;;;;;;12501280;28;20140;-42
2021/01/23 11:41:52;;;;;;;9.73;4.90;;;4.60;99.90;;;;;;12489170;28;20605;-42
2021/01/23 11:47:53;;;;;;;7.30;4.75;;;4.70;99.90;;;;;;12488597;28;20141;-42
2021/01/23 11:53:54;;;;;;;8.73;4.75;;;4.60;99.90;;;;;;12505176;28;20090;-41
2021/01/23 11:59:56;;;;;;;8.95;4.68;;;4.60;99.90;;;;;;12515822;28;20048;-41
2021/01/23 12:05:57;;;;;;;7.38;4.05;;;4.50;99.90;;;;;;12491603;28;20132;-42
2021/01/23 12:11:58;;;;;;;9.88;4.40;;;4.70;99.90;;;;;;12505793;28;20584;-42
2021/01/23 12:18:00;;;;;;;8.43;4.45;;;4.80;99.90;;;;;;12499239;28;20053;-42
2021/01/23 12:24:01;;;;;;;8.10;4.32;;;4.70;99.90;;;;;;12484238;28;20060;-42
2021/01/23 12:30:08;;;;;;;7.03;4.43;;;4.70;99.90;;;;;;12504094;28;20551;-41
2021/01/23 12:36:09;;;;;;;7.65;4.50;;;4.70;99.90;;;;;;12488349;28;20179;-41
2021/01/23 12:42:11;;;;;;;5.93;3.88;;;4.70;99.90;;;;;;12479505;28;20109;-41
2021/01/23 12:48:12;;;;;;;8.05;4.43;;;4.70;99.90;;;;;;12500879;28;20136;-42
2021/01/23 12:54:14;;;;;;;9.90;4.55;;;4.90;99.90;;;;;;12499525;28;20596;-41
2021/01/23 13:00:17;;;;;;;5.90;3.72;;;5.00;99.90;;;;;;12492974;28;20073;-41
2021/01/23 13:06:18;;;;;;;6.97;4.10;;;5.10;99.90;;;;;;12492403;28;20052;-42
2021/01/23 13:12:20;;;;;;;6.80;4.22;;;5.00;99.90;;;;;;12503749;28;20131;-42
2021/01/23 13:18:21;;;;;;;6.13;3.67;;;5.00;99.90;;;;;;12492376;28;20077;-42
2021/01/23 13:24:23;;;;;;;6.90;3.53;;;5.10;99.90;;;;;;12496032;28;20083;-41
2021/01/23 13:30:24;;;;;;;7.47;3.88;;;5.20;99.90;;;;;;12496212;28;20652;-42
2021/01/23 13:36:26;;;;;;;8.00;4.65;;;5.10;99.90;;;;;;12486073;28;20669;-42
2021/01/23 13:42:27;;;;;;;6.20;3.72;;;5.30;99.90;;;;;;12485580;28;20080;-41
2021/01/23 13:48:28;;;;;;;5.05;3.50;;;5.30;99.90;;;;;;12504792;28;20076;-41
2021/01/23 13:54:29;;;;;;;6.63;4.10;;;5.20;99.90;;;;;;12497303;28;20151;-41
2021/01/23 14:00:31;;;;;;;5.20;3.50;;;5.10;99.90;;;;;;12479671;28;20052;-41
2021/01/23 14:06:32;;;;;;;7.85;4.05;;;5.00;99.90;;;;;;12491513;28;20057;-41
2021/01/23 14:12:34;;;;;;;5.97;3.55;;;5.00;99.90;;;;;;12494790;28;20037;-41
2021/01/23 14:18:35;;;;;;;7.70;4.25;;;5.00;99.90;;;;;;12481333;28;20136;-41
2021/01/23 14:24:38;;;;;;;6.25;4.15;;;5.00;99.90;;;;;;12492016;28;20481;-41
2021/01/23 14:30:39;;;;;;;6.45;3.88;;;4.90;99.90;;;;;;12499065;28;20068;-41
2021/01/23 14:36:41;;;;;;;7.30;4.90;;;4.80;99.90;;;;;;12491580;28;20053;-41
2021/01/23 14:42:42;;;;;;;7.07;4.20;;;4.60;99.90;;;;;;12482320;28;20131;-42
2021/01/23 14:48:44;;;;;;;8.57;5.50;;;4.60;99.90;;;;;;12489628;28;20148;-42
2021/01/23 14:54:45;;;;;;;6.32;4.85;;;4.60;99.90;;;;;;12499034;28;20068;-41
2021/01/23 15:00:47;;;;;;;8.63;4.57;;;4.60;99.90;;;;;;12490301;28;20103;-41
2021/01/23 15:06:50;;;;;;;9.60;5.53;;;4.50;99.90;;;;;;12490734;28;20076;-41
2021/01/23 15:12:51;;;;;;;9.25;4.97;;;4.40;99.90;;;;;;12483261;28;20580;-42
2021/01/23 15:18:53;;;;;;;11.90;5.00;;;4.30;99.90;;;;;;12487412;28;20049;-41
2021/01/23 15:24:54;;;;;;;7.90;5.50;;;4.20;99.90;;;;;;12492798;28;20136;-41
2021/01/23 15:30:55;;;;;;;9.65;5.47;;;4.10;99.90;;;;;;12496527;28;20056;-41
2021/01/23 15:36:57;;;;;;;8.57;5.60;;;3.90;99.90;;;;;;12503758;28;20060;-42
2021/01/23 15:42:59;;;;;;;7.53;5.28;;;3.90;99.90;;;;;;12497731;28;20073;-42
2021/01/23 15:49:01;;;;;;;8.13;5.55;;;3.70;99.90;;;;;;12489555;28;20092;-41
2021/01/23 15:55:03;;;;;;;10.02;5.40;;;3.60;99.90;;;;;;12498288;28;20053;-41
2021/01/23 16:01:04;;;;;;;9.93;6.40;;;3.60;99.90;;;;;;12499561;28;20056;-42
2021/01/23 16:07:05;;;;;;;11.35;6.50;;;3.50;99.90;;;;;;12499912;28;20156;-41
2021/01/23 16:13:07;;;;;;;9.75;6.70;;;3.60;99.90;;;;;;12496341;28;20052;-41
2021/01/23 16:19:08;;;;;;;9.32;6.35;;;3.70;99.90;;;;;;12492647;28;20102;-41
2021/01/23 16:25:10;;;;;;;12.20;7.10;;;3.60;99.90;;;;;;12500651;28;20041;-42
2021/01/23 16:31:11;;;;;;;12.43;7.75;;;3.60;99.90;;;;;;12460573;28;20160;-41
2021/01/23 16:37:13;;;;;;;11.27;7.80;;;3.70;99.90;;;;;;12473421;28;20042;-41
2021/01/23 16:43:15;;;;;;;12.57;7.30;;;3.70;99.90;;;;;;12475218;28;20136;-41
2021/01/23 16:49:16;;;;;;;11.73;7.28;;;3.70;99.90;;;;;;12487947;28;20045;-42
2021/01/23 16:55:19;;;;;;;9.75;6.47;;;3.80;99.90;;;;;;12496527;28;20060;-41
2021/01/23 17:01:21;;;;;;;9.02;5.95;;;3.80;99.90;;;;;;12477792;28;20090;-42
2021/01/23 17:07:22;;;;;;;9.57;6.13;;;3.80;99.90;;;;;;12483348;28;20049;-41
2021/01/23 17:13:24;;;;;;;11.98;7.03;;;3.80;99.90;;;;;;12494911;28;20045;-42
2021/01/23 17:19:25;;;;;;;10.90;6.50;;;3.80;99.90;;;;;;12492646;28;20048;-42
2021/01/23 17:25:26;;;;;;;13.13;6.57;;;3.80;99.90;;;;;;12458539;28;20198;-41
2021/01/23 17:31:28;;;;;;;10.57;6.65;;;3.70;99.90;;;;;;12498372;28;20483;-41
2021/01/23 17:37:29;;;;;;;10.23;5.93;;;3.80;99.90;;;;;;12497210;28;20045;-42
2021/01/23 17:43:31;;;;;;;9.90;4.88;;;3.80;99.90;;;;;;12478186;28;20040;-41
2021/01/23 17:49:33;;;;;;;8.85;6.07;;;3.90;99.90;;;;;;12481693;28;20485;-41
2021/01/23 17:55:36;;;;;;;10.07;5.50;;;3.80;99.90;;;;;;12502124;28;20045;-42
2021/01/23 18:01:37;;;;;;;9.48;5.50;;;3.80;99.90;;;;;;12478859;28;20060;-41
2021/01/23 18:07:40;;;;;;;9.32;5.45;;;3.80;99.90;;;;;;12495100;28;20079;-41
2021/01/23 18:13:41;;;;;;;8.80;5.80;;;3.80;99.90;;;;;;12490908;28;20523;-42
2021/01/23 18:19:43;;;;;;;13.57;5.95;;;3.80;99.90;;;;;;12493244;28;20094;-42
2021/01/23 18:25:44;;;;;;;10.57;6.50;;;3.80;99.90;;;;;;12486986;28;20064;-42
2021/01/23 18:31:46;;;;;;;11.77;6.70;;;3.70;99.90;;;;;;12490155;28;20041;-42
2021/01/23 18:37:47;;;;;;;8.82;5.88;;;3.70;99.90;;;;;;12490826;28;20076;-42
2021/01/23 18:43:49;;;;;;;9.50;5.85;;;3.70;99.90;;;;;;12486236;28;20048;-42
2021/01/23 18:49:51;;;;;;;10.57;5.78;;;3.80;99.90;;;;;;12503488;28;20396;-41
2021/01/23 18:55:52;;;;;;;10.90;6.30;;;3.80;99.90;;;;;;12493338;28;20059;-42
2021/01/23 19:01:54;;;;;;;10.52;6.63;;;3.80;99.90;;;;;;12508719;28;20060;-41
2021/01/23 19:07:56;;;;;;;11.88;7.57;;;3.80;99.90;;;;;;12494037;28;20045;-41
2021/01/23 19:13:57;;;;;;;12.52;7.18;;;3.70;99.90;;;;;;12496733;28;20417;-42
2021/01/23 19:19:59;;;;;;;10.85;7.20;;;3.60;99.90;;;;;;12491432;28;21892;-41
2021/01/23 19:26:03;;;;;;;11.90;7.30;;;3.40;99.90;;;;;;12498802;28;20065;-41
2021/01/23 19:32:05;;;;;;;11.85;7.15;;;3.20;99.90;;;;;;12505946;28;20570;-41
2021/01/23 19:38:08;;;;;;;10.75;7.60;;;3.10;99.90;;;;;;12501225;28;20060;-41
2021/01/23 19:44:09;;;;;;;13.60;7.95;;;3.00;99.90;;;;;;12472310;28;20041;-41
2021/01/23 19:50:11;;;;;;;15.88;8.13;;;2.90;99.90;;;;;;12508855;28;20094;-42
2021/01/23 19:56:12;;;;;;;14.52;8.70;;;2.80;99.90;;;;;;12506219;28;20677;-41
2021/01/23 20:02:14;;;;;;;15.43;8.23;;;2.80;99.90;;;;;;12504944;28;20056;-42
2021/01/23 20:08:15;;;;;;;12.80;8.32;;;2.80;99.90;;;;;;12484334;28;20049;-41
2021/01/23 20:14:16;;;;;;;14.98;9.13;;;2.90;99.90;;;;;;12506556;28;20088;-41
2021/01/23 20:20:22;;;;;;;14.90;8.93;;;3.00;99.90;;;;;;12503589;28;20056;-42
2021/01/23 20:26:26;;;;;;;16.73;9.10;;;3.00;99.90;;;;;;12500680;28;20168;-41
2021/01/23 20:32:27;;;;;;;14.40;8.85;;;3.10;99.90;;;;;;12503450;28;20052;-42
2021/01/23 20:38:29;;;;;;;13.25;9.07;;;3.10;99.90;;;;;;12501892;28;20060;-42
2021/01/23 20:44:30;;;;;;;15.38;9.15;;;3.10;99.90;;;;;;12497522;28;20230;-41
2021/01/23 20:50:32;;;;;;;17.83;9.70;;;3.10;99.90;;;;;;12501419;28;20075;-42
2021/01/23 20:56:33;;;;;;;14.50;9.30;;;3.00;99.90;;;;;;12504993;28;20489;-41
2021/01/23 21:02:36;;;;;;;14.73;10.00;;;2.80;99.90;;;;;;12496757;28;20416;-42
2021/01/23 21:08:39;;;;;;;28.95;13.52;;;2.60;99.90;;;;;;12496046;28;20064;-41
2021/01/23 21:14:41;;;;;;;22.45;11.77;;;2.50;99.90;;;;;;12494461;28;20051;-41
2021/01/23 21:20:45;;;;;;;24.67;12.00;;;2.40;99.90;;;;;;12498607;28;20136;-41
2021/01/23 21:26:46;;;;;;;21.10;12.05;;;2.30;99.90;;;;;;12489937;28;20061;-41
2021/01/23 21:32:48;;;;;;;18.25;11.43;;;2.30;99.90;;;;;;12504570;28;20629;-41
2021/01/23 21:38:49;;;;;;;23.13;13.13;;;2.30;99.90;;;;;;12488952;28;20060;-41
2021/01/23 21:44:51;;;;;;;23.75;12.60;;;2.30;99.90;;;;;;12496641;28;20061;-41
2021/01/23 21:50:52;;;;;;;21.92;11.80;;;2.40;99.90;;;;;;12499317;28;20131;-41
2021/01/23 21:56:53;;;;;;;20.42;11.77;;;2.40;99.90;;;;;;12515086;28;20068;-41
2021/01/23 22:02:55;;;;;;;20.02;12.35;;;2.20;99.90;;;;;;12493361;28;20086;-40
2021/01/23 22:08:56;;;;;;;22.70;13.75;;;2.20;99.90;;;;;;12486063;28;20107;-41
2021/01/23 22:14:57;;;;;;;22.83;13.80;;;2.30;99.90;;;;;;12475603;28;20053;-42
2021/01/23 22:20:59;;;;;;;21.70;13.18;;;2.30;99.90;;;;;;12500441;28;20048;-41
2021/01/23 22:27:01;;;;;;;22.65;13.85;;;2.30;99.90;;;;;;12494551;28;20057;-41
2021/01/23 22:33:02;;;;;;;23.45;12.18;;;2.20;99.90;;;;;;12489163;28;20190;-41
2021/01/23 22:39:04;;;;;;;20.20;12.75;;;2.10;99.90;;;;;;12493096;28;20052;-41
2021/01/23 22:45:06;;;;;;;22.50;13.90;;;2.10;99.90;;;;;;12500094;28;20098;-41
2021/01/23 22:51:08;;;;;;;22.15;13.38;;;2.10;99.90;;;;;;12499468;28;20045;-41
2021/01/23 22:57:09;;;;;;;22.35;13.40;;;2.20;99.90;;;;;;12496940;28;20092;-42
2021/01/23 23:03:11;;;;;;;23.00;14.00;;;2.20;99.90;;;;;;12498546;28;20577;-41
2021/01/23 23:09:13;;;;;;;21.17;13.43;;;2.30;99.90;;;;;;12461520;28;20050;-41
2021/01/23 23:15:14;;;;;;;24.63;13.10;;;2.30;99.90;;;;;;12477263;28;20077;-41
2021/01/23 23:21:16;;;;;;;21.42;13.65;;;2.30;99.90;;;;;;12489113;28;20080;-41
2021/01/23 23:27:17;;;;;;;20.92;12.68;;;2.30;99.90;;;;;;12501380;28;20615;-41
2021/01/23 23:33:18;;;;;;;23.95;12.57;;;2.30;99.90;;;;;;12494167;28;20466;-41
2021/01/23 23:39:20;;;;;;;24.75;13.13;;;2.30;99.90;;;;;;12480591;28;20552;-41
2021/01/23 23:45:22;;;;;;;20.88;12.70;;;2.30;99.90;;;;;;12496943;28;20053;-41
2021/01/23 23:51:23;;;;;;;21.73;13.30;;;2.30;99.90;;;;;;12492855;28;20139;-41
2021/01/23 23:57:24;;;;;;;19.55;11.80;;;2.30;99.90;;;;;;12510328;28;20934;-41
